sensor_id;sensor_type;location;lat;lon;timestamp;pressure;altitude;pressure_sealevel;temperature;humidity
79671;BME280;69137;50.878;8.050;2023-12-20T00:00:54;98092.34;;;4.21;100.00
79671;BME280;69137;50.878;8.050;2023-12-20T00:03:19;98094.19;;;4.20;100.00
79671;BME280;69137;50.878;8.050;2023-12-20T00:05:44;98101.28;;;4.33;100.00
79671;BME280;69137;50.878;8.050;2023-12-20T00:08:10;98096.94;;;4.32;100.00
79671;BME280;69137;50.878;8.050;2023-12-20T00:10:35;98088.13;;;4.36;100.00
79671;BME280;69137;50.878;8.050;2023-12-20T00:13:00;98085.50;;;4.30;100.00
79671;BME280;69137;50.878;8.050;2023-12-20T00:15:26;98090.22;;;4.34;100.00
79671;BME280;69137;50.878;8.050;2023-12-20T00:17:51;98086.34;;;4.30;100.00
79671;BME280;69137;50.878;8.050;2023-12-20T00:20:16;98083.53;;;4.37;100.00
79671;BME280;69137;50.878;8.050;2023-12-20T00:22:41;98085.53;;;4.42;100.00
79671;BME280;69137;50.878;8.050;2023-12-20T00:25:07;98073.19;;;4.34;100.00
79671;BME280;69137;50.878;8.050;2023-12-20T00:27:33;98082.47;;;4.38;100.00
79671;BME280;69137;50.878;8.050;2023-12-20T00:29:58;98079.63;;;4.33;100.00
79671;BME280;69137;50.878;8.050;2023-12-20T00:32:23;98083.31;;;4.38;100.00
79671;BME280;69137;50.878;8.050;2023-12-20T00:34:48;98071.53;;;4.33;100.00
79671;BME280;69137;50.878;8.050;2023-12-20T00:37:14;98069.53;;;4.40;100.00
79671;BME280;69137;50.878;8.050;2023-12-20T00:39:39;98068.59;;;4.34;100.00
79671;BME280;69137;50.878;8.050;2023-12-20T00:42:04;98068.25;;;4.31;100.00
79671;BME280;69137;50.878;8.050;2023-12-20T00:44:30;98061.66;;;4.38;100.00
79671;BME280;69137;50.878;8.050;2023-12-20T00:46:55;98070.59;;;4.39;100.00
79671;BME280;69137;50.878;8.050;2023-12-20T00:49:20;98062.34;;;4.46;100.00
79671;BME280;69137;50.878;8.050;2023-12-20T00:51:45;98062.84;;;4.43;100.00
79671;BME280;69137;50.878;8.050;2023-12-20T00:54:12;98064.84;;;4.47;100.00
79671;BME280;69137;50.878;8.050;2023-12-20T00:56:37;98065.44;;;4.49;100.00
79671;BME280;69137;50.878;8.050;2023-12-20T00:59:02;98054.03;;;4.47;100.00
79671;BME280;69137;50.878;8.050;2023-12-20T01:01:27;98067.19;;;4.55;100.00
79671;BME280;69137;50.878;8.050;2023-12-20T01:03:53;98063.66;;;4.55;100.00
79671;BME280;69137;50.878;8.050;2023-12-20T01:06:18;98056.38;;;4.55;100.00
79671;BME280;69137;50.878;8.050;2023-12-20T01:08:44;98057.06;;;4.51;100.00
79671;BME280;69137;50.878;8.050;2023-12-20T01:11:09;98063.41;;;4.56;100.00
79671;BME280;69137;50.878;8.050;2023-12-20T01:13:35;98070.50;;;4.57;100.00
79671;BME280;69137;50.878;8.050;2023-12-20T01:16:00;98079.19;;;4.59;100.00
79671;BME280;69137;50.878;8.050;2023-12-20T01:18:26;98069.41;;;4.58;100.00
79671;BME280;69137;50.878;8.050;2023-12-20T01:20:51;98062.72;;;4.61;100.00
79671;BME280;69137;50.878;8.050;2023-12-20T01:23:16;98050.00;;;4.62;100.00
79671;BME280;69137;50.878;8.050;2023-12-20T01:25:42;98061.69;;;4.62;100.00
79671;BME280;69137;50.878;8.050;2023-12-20T01:28:08;98058.50;;;4.65;100.00
79671;BME280;69137;50.878;8.050;2023-12-20T01:30:33;98064.50;;;4.67;100.00
79671;BME280;69137;50.878;8.050;2023-12-20T01:33:00;98054.50;;;4.68;100.00
79671;BME280;69137;50.878;8.050;2023-12-20T01:35:25;98050.22;;;4.72;100.00
79671;BME280;69137;50.878;8.050;2023-12-20T01:37:51;98058.13;;;4.73;100.00
79671;BME280;69137;50.878;8.050;2023-12-20T01:40:16;98053.19;;;4.70;100.00
79671;BME280;69137;50.878;8.050;2023-12-20T01:42:41;98052.38;;;4.70;100.00
79671;BME280;69137;50.878;8.050;2023-12-20T01:45:07;98056.50;;;4.72;100.00
79671;BME280;69137;50.878;8.050;2023-12-20T01:47:33;98053.41;;;4.80;100.00
79671;BME280;69137;50.878;8.050;2023-12-20T01:49:58;98060.94;;;4.78;100.00
79671;BME280;69137;50.878;8.050;2023-12-20T01:52:25;98065.88;;;4.81;100.00
79671;BME280;69137;50.878;8.050;2023-12-20T01:54:51;98062.03;;;4.77;100.00
79671;BME280;69137;50.878;8.050;2023-12-20T01:57:16;98067.88;;;4.74;100.00
79671;BME280;69137;50.878;8.050;2023-12-20T01:59:42;98079.66;;;4.80;100.00
79671;BME280;69137;50.878;8.050;2023-12-20T02:02:08;98087.69;;;4.75;100.00
79671;BME280;69137;50.878;8.050;2023-12-20T02:04:33;98099.91;;;4.77;100.00
79671;BME280;69137;50.878;8.050;2023-12-20T02:06:59;98104.72;;;4.75;100.00
79671;BME280;69137;50.878;8.050;2023-12-20T02:09:24;98100.34;;;4.74;100.00
79671;BME280;69137;50.878;8.050;2023-12-20T02:11:49;98098.94;;;4.72;100.00
79671;BME280;69137;50.878;8.050;2023-12-20T02:14:15;98102.25;;;4.74;100.00
79671;BME280;69137;50.878;8.050;2023-12-20T02:16:40;98104.84;;;4.69;100.00
79671;BME280;69137;50.878;8.050;2023-12-20T02:19:14;98111.53;;;4.66;100.00
79671;BME280;69137;50.878;8.050;2023-12-20T02:21:40;98097.06;;;4.60;100.00
79671;BME280;69137;50.878;8.050;2023-12-20T02:24:05;98102.38;;;4.55;100.00
79671;BME280;69137;50.878;8.050;2023-12-20T02:26:32;98107.78;;;4.55;100.00
79671;BME280;69137;50.878;8.050;2023-12-20T02:28:58;98108.84;;;4.54;100.00
79671;BME280;69137;50.878;8.050;2023-12-20T02:31:24;98103.19;;;4.56;100.00
79671;BME280;69137;50.878;8.050;2023-12-20T02:33:49;98107.91;;;4.49;100.00
79671;BME280;69137;50.878;8.050;2023-12-20T02:36:14;98104.59;;;4.47;100.00
79671;BME280;69137;50.878;8.050;2023-12-20T02:38:40;98103.28;;;4.37;100.00
79671;BME280;69137;50.878;8.050;2023-12-20T02:41:05;98111.66;;;4.36;100.00
79671;BME280;69137;50.878;8.050;2023-12-20T02:43:30;98105.78;;;4.39;100.00
79671;BME280;69137;50.878;8.050;2023-12-20T02:45:55;98104.81;;;4.33;100.00
79671;BME280;69137;50.878;8.050;2023-12-20T02:48:22;98100.31;;;4.15;100.00
79671;BME280;69137;50.878;8.050;2023-12-20T02:50:48;98106.75;;;4.14;100.00
79671;BME280;69137;50.878;8.050;2023-12-20T02:53:14;98099.94;;;4.12;100.00
79671;BME280;69137;50.878;8.050;2023-12-20T02:55:39;98104.66;;;4.05;100.00
79671;BME280;69137;50.878;8.050;2023-12-20T02:58:05;98107.00;;;4.13;100.00
79671;BME280;69137;50.878;8.050;2023-12-20T03:00:30;98113.47;;;4.12;100.00
79671;BME280;69137;50.878;8.050;2023-12-20T03:02:55;98114.53;;;4.11;100.00
79671;BME280;69137;50.878;8.050;2023-12-20T03:05:20;98128.53;;;4.20;100.00
79671;BME280;69137;50.878;8.050;2023-12-20T03:07:46;98130.88;;;4.16;100.00
79671;BME280;69137;50.878;8.050;2023-12-20T03:10:11;98129.94;;;4.22;100.00
79671;BME280;69137;50.878;8.050;2023-12-20T03:12:36;98128.31;;;4.21;100.00
79671;BME280;69137;50.878;8.050;2023-12-20T03:15:02;98129.09;;;4.10;100.00
79671;BME280;69137;50.878;8.050;2023-12-20T03:17:27;98124.88;;;4.14;100.00
79671;BME280;69137;50.878;8.050;2023-12-20T03:19:52;98133.19;;;4.12;100.00
79671;BME280;69137;50.878;8.050;2023-12-20T03:22:17;98138.25;;;4.09;100.00
79671;BME280;69137;50.878;8.050;2023-12-20T03:24:43;98132.38;;;4.12;100.00
79671;BME280;69137;50.878;8.050;2023-12-20T03:27:08;98136.63;;;4.08;100.00
79671;BME280;69137;50.878;8.050;2023-12-20T03:29:33;98137.22;;;4.10;100.00
79671;BME280;69137;50.878;8.050;2023-12-20T03:31:59;98147.28;;;4.03;100.00
79671;BME280;69137;50.878;8.050;2023-12-20T03:34:24;98136.47;;;4.03;100.00
79671;BME280;69137;50.878;8.050;2023-12-20T03:36:49;98134.13;;;4.06;100.00
79671;BME280;69137;50.878;8.050;2023-12-20T03:39:14;98128.72;;;4.06;100.00
79671;BME280;69137;50.878;8.050;2023-12-20T03:41:40;98131.44;;;4.06;100.00
79671;BME280;69137;50.878;8.050;2023-12-20T03:44:05;98140.34;;;4.07;100.00
79671;BME280;69137;50.878;8.050;2023-12-20T03:46:30;98131.06;;;4.03;100.00
79671;BME280;69137;50.878;8.050;2023-12-20T03:48:56;98121.31;;;4.02;100.00
79671;BME280;69137;50.878;8.050;2023-12-20T03:51:22;98127.41;;;3.97;100.00
79671;BME280;69137;50.878;8.050;2023-12-20T03:53:47;98144.06;;;3.94;100.00
79671;BME280;69137;50.878;8.050;2023-12-20T03:56:13;98145.28;;;3.98;100.00
79671;BME280;69137;50.878;8.050;2023-12-20T03:58:38;98143.84;;;3.96;100.00
79671;BME280;69137;50.878;8.050;2023-12-20T04:01:03;98142.66;;;3.91;99.64
79671;BME280;69137;50.878;8.050;2023-12-20T04:03:33;98137.25;;;3.91;100.00
79671;BME280;69137;50.878;8.050;2023-12-20T04:05:59;98141.09;;;3.84;99.60
79671;BME280;69137;50.878;8.050;2023-12-20T04:08:24;98143.78;;;3.84;99.49
79671;BME280;69137;50.878;8.050;2023-12-20T04:10:49;98137.97;;;3.87;98.84
79671;BME280;69137;50.878;8.050;2023-12-20T04:13:14;98145.94;;;3.82;99.70
79671;BME280;69137;50.878;8.050;2023-12-20T04:15:40;98144.03;;;3.82;100.00
79671;BME280;69137;50.878;8.050;2023-12-20T04:18:05;98147.63;;;3.76;99.48
79671;BME280;69137;50.878;8.050;2023-12-20T04:20:30;98148.25;;;3.78;100.00
79671;BME280;69137;50.878;8.050;2023-12-20T04:22:56;98137.41;;;3.66;100.00
79671;BME280;69137;50.878;8.050;2023-12-20T04:25:21;98143.41;;;3.68;100.00
79671;BME280;69137;50.878;8.050;2023-12-20T04:27:46;98141.13;;;3.65;99.96
79671;BME280;69137;50.878;8.050;2023-12-20T04:30:13;98137.16;;;3.68;100.00
79671;BME280;69137;50.878;8.050;2023-12-20T04:32:38;98146.47;;;3.72;99.41
79671;BME280;69137;50.878;8.050;2023-12-20T04:35:04;98146.47;;;3.72;99.12
79671;BME280;69137;50.878;8.050;2023-12-20T04:37:29;98144.59;;;3.72;99.63
79671;BME280;69137;50.878;8.050;2023-12-20T04:39:55;98146.78;;;3.64;100.00
79671;BME280;69137;50.878;8.050;2023-12-20T04:42:20;98153.81;;;3.65;100.00
79671;BME280;69137;50.878;8.050;2023-12-20T04:44:45;98147.66;;;3.58;100.00
79671;BME280;69137;50.878;8.050;2023-12-20T04:47:10;98139.66;;;3.51;100.00
79671;BME280;69137;50.878;8.050;2023-12-20T04:49:36;98153.03;;;3.46;100.00
79671;BME280;69137;50.878;8.050;2023-12-20T04:52:01;98168.78;;;3.49;100.00
79671;BME280;69137;50.878;8.050;2023-12-20T04:54:26;98153.84;;;3.46;100.00
79671;BME280;69137;50.878;8.050;2023-12-20T04:56:51;98147.47;;;3.41;100.00
79671;BME280;69137;50.878;8.050;2023-12-20T04:59:17;98152.41;;;3.44;100.00
79671;BME280;69137;50.878;8.050;2023-12-20T05:01:42;98149.72;;;3.44;100.00
79671;BME280;69137;50.878;8.050;2023-12-20T05:04:07;98157.81;;;3.44;100.00
79671;BME280;69137;50.878;8.050;2023-12-20T05:06:32;98155.94;;;3.44;100.00
79671;BME280;69137;50.878;8.050;2023-12-20T05:08:58;98156.53;;;3.46;100.00
79671;BME280;69137;50.878;8.050;2023-12-20T05:11:23;98167.97;;;3.48;100.00
79671;BME280;69137;50.878;8.050;2023-12-20T05:13:48;98169.44;;;3.44;100.00
79671;BME280;69137;50.878;8.050;2023-12-20T05:16:14;98164.66;;;3.46;100.00
79671;BME280;69137;50.878;8.050;2023-12-20T05:18:39;98156.09;;;3.49;100.00
79671;BME280;69137;50.878;8.050;2023-12-20T05:21:05;98147.63;;;3.46;100.00
79671;BME280;69137;50.878;8.050;2023-12-20T05:23:30;98154.06;;;3.45;100.00
79671;BME280;69137;50.878;8.050;2023-12-20T05:25:55;98153.16;;;3.51;100.00
79671;BME280;69137;50.878;8.050;2023-12-20T05:28:21;98154.81;;;3.52;100.00
79671;BME280;69137;50.878;8.050;2023-12-20T05:30:46;98144.09;;;3.45;100.00
79671;BME280;69137;50.878;8.050;2023-12-20T05:33:11;98142.22;;;3.46;100.00
79671;BME280;69137;50.878;8.050;2023-12-20T05:35:36;98153.38;;;3.49;100.00
79671;BME280;69137;50.878;8.050;2023-12-20T05:38:02;98156.69;;;3.52;100.00
79671;BME280;69137;50.878;8.050;2023-12-20T05:40:27;98157.75;;;3.50;100.00
79671;BME280;69137;50.878;8.050;2023-12-20T05:42:53;98160.53;;;3.44;100.00
79671;BME280;69137;50.878;8.050;2023-12-20T05:45:19;98156.75;;;3.45;100.00
79671;BME280;69137;50.878;8.050;2023-12-20T05:47:44;98168.56;;;3.50;100.00
79671;BME280;69137;50.878;8.050;2023-12-20T05:50:09;98178.31;;;3.52;100.00
79671;BME280;69137;50.878;8.050;2023-12-20T05:52:35;98169.69;;;3.43;100.00
79671;BME280;69137;50.878;8.050;2023-12-20T05:55:00;98190.91;;;3.39;100.00
79671;BME280;69137;50.878;8.050;2023-12-20T05:57:28;98186.31;;;3.40;100.00
79671;BME280;69137;50.878;8.050;2023-12-20T05:59:53;98177.78;;;3.43;100.00
79671;BME280;69137;50.878;8.050;2023-12-20T06:02:19;98183.78;;;3.45;100.00
79671;BME280;69137;50.878;8.050;2023-12-20T06:04:44;98186.19;;;3.53;100.00
79671;BME280;69137;50.878;8.050;2023-12-20T06:07:13;98192.47;;;3.47;100.00
79671;BME280;69137;50.878;8.050;2023-12-20T06:09:39;98176.28;;;3.47;100.00
79671;BME280;69137;50.878;8.050;2023-12-20T06:12:04;98186.56;;;3.57;100.00
79671;BME280;69137;50.878;8.050;2023-12-20T06:14:29;98182.78;;;3.58;100.00
79671;BME280;69137;50.878;8.050;2023-12-20T06:16:56;98183.25;;;3.55;100.00
79671;BME280;69137;50.878;8.050;2023-12-20T06:19:22;98179.06;;;3.59;100.00
79671;BME280;69137;50.878;8.050;2023-12-20T06:21:47;98181.75;;;3.59;100.00
79671;BME280;69137;50.878;8.050;2023-12-20T06:24:12;98190.00;;;3.64;100.00
79671;BME280;69137;50.878;8.050;2023-12-20T06:26:38;98188.66;;;3.55;100.00
79671;BME280;69137;50.878;8.050;2023-12-20T06:29:03;98187.38;;;3.57;100.00
79671;BME280;69137;50.878;8.050;2023-12-20T06:31:28;98184.22;;;3.60;100.00
79671;BME280;69137;50.878;8.050;2023-12-20T06:33:54;98181.75;;;3.59;100.00
79671;BME280;69137;50.878;8.050;2023-12-20T06:36:28;98178.59;;;3.62;100.00
79671;BME280;69137;50.878;8.050;2023-12-20T06:38:53;98175.16;;;3.55;100.00
79671;BME280;69137;50.878;8.050;2023-12-20T06:41:19;98166.22;;;3.54;100.00
79671;BME280;69137;50.878;8.050;2023-12-20T06:43:44;98170.56;;;3.55;100.00
79671;BME280;69137;50.878;8.050;2023-12-20T06:46:09;98180.94;;;3.58;100.00
79671;BME280;69137;50.878;8.050;2023-12-20T06:48:35;98187.38;;;3.57;100.00
79671;BME280;69137;50.878;8.050;2023-12-20T06:51:01;98190.22;;;3.62;100.00
79671;BME280;69137;50.878;8.050;2023-12-20T06:53:29;98175.28;;;3.60;100.00
79671;BME280;69137;50.878;8.050;2023-12-20T06:55:54;98169.88;;;3.60;100.00
79671;BME280;69137;50.878;8.050;2023-12-20T06:58:21;98170.94;;;3.59;100.00
79671;BME280;69137;50.878;8.050;2023-12-20T07:00:46;98169.28;;;3.58;100.00
79671;BME280;69137;50.878;8.050;2023-12-20T07:03:12;98170.94;;;3.59;100.00
79671;BME280;69137;50.878;8.050;2023-12-20T07:05:37;98180.94;;;3.58;100.00
79671;BME280;69137;50.878;8.050;2023-12-20T07:08:03;98172.38;;;3.61;100.00
79671;BME280;69137;50.878;8.050;2023-12-20T07:10:28;98175.28;;;3.60;100.00
79671;BME280;69137;50.878;8.050;2023-12-20T07:12:53;98172.59;;;3.60;100.00
79671;BME280;69137;50.878;8.050;2023-12-20T07:15:20;98176.09;;;3.60;100.00
79671;BME280;69137;50.878;8.050;2023-12-20T07:17:45;98170.50;;;3.62;100.00
79671;BME280;69137;50.878;8.050;2023-12-20T07:20:11;98180.34;;;3.56;100.00
79671;BME280;69137;50.878;8.050;2023-12-20T07:22:36;98171.78;;;3.59;100.00
79671;BME280;69137;50.878;8.050;2023-12-20T07:25:02;98178.59;;;3.62;100.00
79671;BME280;69137;50.878;8.050;2023-12-20T07:27:27;98187.97;;;3.59;100.00
79671;BME280;69137;50.878;8.050;2023-12-20T07:29:52;98172.59;;;3.60;100.00
79671;BME280;69137;50.878;8.050;2023-12-20T07:32:18;98175.28;;;3.60;100.00
79671;BME280;69137;50.878;8.050;2023-12-20T07:34:43;98187.91;;;3.66;99.82
79671;BME280;69137;50.878;8.050;2023-12-20T07:37:09;98183.41;;;3.60;100.00
79671;BME280;69137;50.878;8.050;2023-12-20T07:39:36;98188.94;;;3.65;100.00
79671;BME280;69137;50.878;8.050;2023-12-20T07:42:02;98184.66;;;3.57;100.00
79671;BME280;69137;50.878;8.050;2023-12-20T07:44:27;98179.88;;;3.59;100.00
79671;BME280;69137;50.878;8.050;2023-12-20T07:46:52;98183.19;;;3.61;100.00
79671;BME280;69137;50.878;8.050;2023-12-20T07:49:19;98185.06;;;3.61;100.00
79671;BME280;69137;50.878;8.050;2023-12-20T07:51:44;98189.19;;;3.63;100.00
79671;BME280;69137;50.878;8.050;2023-12-20T07:54:09;98190.47;;;3.61;100.00
79671;BME280;69137;50.878;8.050;2023-12-20T07:56:34;98185.63;;;3.63;100.00
79671;BME280;69137;50.878;8.050;2023-12-20T07:59:00;98196.69;;;3.61;100.00
79671;BME280;69137;50.878;8.050;2023-12-20T08:01:26;98198.72;;;3.66;100.00
79671;BME280;69137;50.878;8.050;2023-12-20T08:03:51;98197.06;;;3.65;100.00
79671;BME280;69137;50.878;8.050;2023-12-20T08:06:16;98204.94;;;3.66;100.00
79671;BME280;69137;50.878;8.050;2023-12-20T08:08:42;98198.47;;;3.67;100.00
79671;BME280;69137;50.878;8.050;2023-12-20T08:11:07;98211.00;;;3.62;100.00
79671;BME280;69137;50.878;8.050;2023-12-20T08:13:33;98210.81;;;3.63;100.00
79671;BME280;69137;50.878;8.050;2023-12-20T08:15:58;98212.81;;;3.68;100.00
79671;BME280;69137;50.878;8.050;2023-12-20T08:18:24;98210.56;;;3.65;100.00
79671;BME280;69137;50.878;8.050;2023-12-20T08:20:49;98211.63;;;3.64;100.00
79671;BME280;69137;50.878;8.050;2023-12-20T08:23:15;98215.09;;;3.71;100.00
79671;BME280;69137;50.878;8.050;2023-12-20T08:25:40;98209.88;;;3.69;100.00
79671;BME280;69137;50.878;8.050;2023-12-20T08:28:05;98207.53;;;3.73;99.90
79671;BME280;69137;50.878;8.050;2023-12-20T08:30:31;98204.03;;;3.72;99.45
79671;BME280;69137;50.878;8.050;2023-12-20T08:33:00;98212.75;;;3.75;100.00
79671;BME280;69137;50.878;8.050;2023-12-20T08:35:25;98205.91;;;3.72;99.97
79671;BME280;69137;50.878;8.050;2023-12-20T08:37:51;98208.97;;;3.76;100.00
79671;BME280;69137;50.878;8.050;2023-12-20T08:40:16;98200.88;;;3.76;99.07
79671;BME280;69137;50.878;8.050;2023-12-20T08:42:41;98212.28;;;3.78;98.58
79671;BME280;69137;50.878;8.050;2023-12-20T08:45:07;98208.41;;;3.74;98.74
79671;BME280;69137;50.878;8.050;2023-12-20T08:47:32;98208.63;;;3.72;99.89
79671;BME280;69137;50.878;8.050;2023-12-20T08:49:57;98194.03;;;3.73;99.00
79671;BME280;69137;50.878;8.050;2023-12-20T08:52:25;98203.81;;;3.74;99.50
79671;BME280;69137;50.878;8.050;2023-12-20T08:54:52;98195.09;;;3.72;99.53
79671;BME280;69137;50.878;8.050;2023-12-20T08:57:20;98203.09;;;3.79;98.87
79671;BME280;69137;50.878;8.050;2023-12-20T08:59:49;98193.22;;;3.72;98.16
79671;BME280;69137;50.878;8.050;2023-12-20T09:02:15;98192.19;;;3.74;99.19
79671;BME280;69137;50.878;8.050;2023-12-20T09:04:40;98194.28;;;3.71;99.96
79671;BME280;69137;50.878;8.050;2023-12-20T09:07:06;98195.09;;;3.72;99.82
79671;BME280;69137;50.878;8.050;2023-12-20T09:09:32;98198.03;;;3.70;99.33
79671;BME280;69137;50.878;8.050;2023-12-20T09:11:58;98201.56;;;3.71;100.00
79671;BME280;69137;50.878;8.050;2023-12-20T09:14:23;98205.81;;;3.79;99.71
79671;BME280;69137;50.878;8.050;2023-12-20T09:16:49;98198.69;;;3.84;99.49
79671;BME280;69137;50.878;8.050;2023-12-20T09:19:16;98203.09;;;3.79;99.69
79671;BME280;69137;50.878;8.050;2023-12-20T09:21:42;98198.16;;;3.76;99.53
79671;BME280;69137;50.878;8.050;2023-12-20T09:24:07;98200.03;;;3.75;99.12
79671;BME280;69137;50.878;8.050;2023-12-20T09:26:33;98195.09;;;3.72;99.80
79671;BME280;69137;50.878;8.050;2023-12-20T09:28:59;98184.28;;;3.72;99.58
79671;BME280;69137;50.878;8.050;2023-12-20T09:31:24;98192.41;;;3.72;99.98
79671;BME280;69137;50.878;8.050;2023-12-20T09:33:49;98185.72;;;3.75;100.00
79671;BME280;69137;50.878;8.050;2023-12-20T09:36:14;98196.97;;;3.71;100.00
79671;BME280;69137;50.878;8.050;2023-12-20T09:38:40;98192.75;;;3.76;100.00
79671;BME280;69137;50.878;8.050;2023-12-20T09:41:05;98198.25;;;3.69;100.00
79671;BME280;69137;50.878;8.050;2023-12-20T09:43:31;98194.75;;;3.68;100.00
79671;BME280;69137;50.878;8.050;2023-12-20T09:46:00;98191.59;;;3.71;100.00
79671;BME280;69137;50.878;8.050;2023-12-20T09:48:27;98191.25;;;3.80;100.00
79671;BME280;69137;50.878;8.050;2023-12-20T09:50:53;98191.94;;;3.75;100.00
79671;BME280;69137;50.878;8.050;2023-12-20T09:53:19;98205.22;;;3.77;100.00
79671;BME280;69137;50.878;8.050;2023-12-20T09:55:44;98187.00;;;3.72;100.00
79671;BME280;69137;50.878;8.050;2023-12-20T09:58:10;98182.88;;;3.69;100.00
79671;BME280;69137;50.878;8.050;2023-12-20T10:00:35;98192.41;;;3.72;100.00
79671;BME280;69137;50.878;8.050;2023-12-20T10:03:01;98193.69;;;3.69;100.00
79671;BME280;69137;50.878;8.050;2023-12-20T10:05:31;98190.38;;;3.67;100.00
79671;BME280;69137;50.878;8.050;2023-12-20T10:07:58;98186.19;;;3.71;100.00
79671;BME280;69137;50.878;8.050;2023-12-20T10:10:24;98191.34;;;3.73;100.00
79671;BME280;69137;50.878;8.050;2023-12-20T10:13:06;98189.09;;;3.70;100.00
79671;BME280;69137;50.878;8.050;2023-12-20T10:15:33;98183.84;;;3.75;100.00
79671;BME280;69137;50.878;8.050;2023-12-20T10:17:59;98177.69;;;3.68;100.00
79671;BME280;69137;50.878;8.050;2023-12-20T10:20:24;98173.63;;;3.77;100.00
79671;BME280;69137;50.878;8.050;2023-12-20T10:22:50;98168.91;;;3.72;100.00
79671;BME280;69137;50.878;8.050;2023-12-20T10:25:18;98175.13;;;3.73;100.00
79671;BME280;69137;50.878;8.050;2023-12-20T10:27:44;98174.00;;;3.81;100.00
79671;BME280;69137;50.878;8.050;2023-12-20T10:30:09;98181.38;;;3.74;100.00
79671;BME280;69137;50.878;8.050;2023-12-20T10:32:35;98180.78;;;3.71;100.00
79671;BME280;69137;50.878;8.050;2023-12-20T10:35:00;98177.25;;;3.71;100.00
79671;BME280;69137;50.878;8.050;2023-12-20T10:37:26;98177.38;;;3.76;100.00
79671;BME280;69137;50.878;8.050;2023-12-20T10:39:53;98173.38;;;3.79;100.00
79671;BME280;69137;50.878;8.050;2023-12-20T10:42:27;98171.75;;;3.78;100.00
79671;BME280;69137;50.878;8.050;2023-12-20T10:44:53;98178.69;;;3.74;100.00
79671;BME280;69137;50.878;8.050;2023-12-20T10:47:19;98177.63;;;3.75;100.00
79671;BME280;69137;50.878;8.050;2023-12-20T10:49:45;98179.72;;;3.72;100.00
79671;BME280;69137;50.878;8.050;2023-12-20T10:52:11;98171.97;;;3.76;100.00
79671;BME280;69137;50.878;8.050;2023-12-20T10:54:38;98161.28;;;3.81;100.00
79671;BME280;69137;50.878;8.050;2023-12-20T10:57:05;98166.94;;;3.80;100.00
79671;BME280;69137;50.878;8.050;2023-12-20T10:59:33;98154.25;;;3.80;100.00
79671;BME280;69137;50.878;8.050;2023-12-20T11:02:02;98158.59;;;3.81;100.00
79671;BME280;69137;50.878;8.050;2023-12-20T11:04:37;98154.56;;;3.72;100.00
79671;BME280;69137;50.878;8.050;2023-12-20T11:10:31;98171.97;;;3.76;100.00
79671;BME280;69137;50.878;8.050;2023-12-20T11:13:10;98163.28;;;3.74;100.00
79671;BME280;69137;50.878;8.050;2023-12-20T11:15:37;98171.84;;;3.71;100.00
79671;BME280;69137;50.878;8.050;2023-12-20T11:18:03;98169.50;;;3.75;100.00
79671;BME280;69137;50.878;8.050;2023-12-20T11:20:39;98161.41;;;3.75;100.00
79671;BME280;69137;50.878;8.050;2023-12-20T11:23:06;98155.19;;;3.74;100.00
79671;BME280;69137;50.878;8.050;2023-12-20T11:25:55;98156.81;;;3.75;100.00
79671;BME280;69137;50.878;8.050;2023-12-20T11:28:22;98150.22;;;3.71;100.00
79671;BME280;69137;50.878;8.050;2023-12-20T11:30:53;98140.13;;;3.78;100.00
79671;BME280;69137;50.878;8.050;2023-12-20T11:33:36;98144.59;;;3.72;100.00
79671;BME280;69137;50.878;8.050;2023-12-20T11:36:02;98142.69;;;3.73;100.00
79671;BME280;69137;50.878;8.050;2023-12-20T11:38:35;98144.81;;;3.71;100.00
79671;BME280;69137;50.878;8.050;2023-12-20T11:41:00;98151.19;;;3.77;100.00
79671;BME280;69137;50.878;8.050;2023-12-20T11:46:07;98143.66;;;3.79;100.00
79671;BME280;69137;50.878;8.050;2023-12-20T11:48:38;98149.91;;;3.79;100.00
79671;BME280;69137;50.878;8.050;2023-12-20T11:51:13;98147.88;;;3.75;100.00
79671;BME280;69137;50.878;8.050;2023-12-20T11:53:44;98139.44;;;3.71;100.00
79671;BME280;69137;50.878;8.050;2023-12-20T11:56:10;98134.41;;;3.86;100.00
79671;BME280;69137;50.878;8.050;2023-12-20T11:58:36;98129.47;;;3.83;100.00
79671;BME280;69137;50.878;8.050;2023-12-20T12:01:02;98136.28;;;3.86;100.00
79671;BME280;69137;50.878;8.050;2023-12-20T12:03:27;98132.78;;;3.85;100.00
79671;BME280;69137;50.878;8.050;2023-12-20T12:05:53;98124.75;;;3.79;100.00
79671;BME280;69137;50.878;8.050;2023-12-20T12:08:18;98123.47;;;3.81;100.00
79671;BME280;69137;50.878;8.050;2023-12-20T12:10:44;98124.06;;;3.83;100.00
79671;BME280;69137;50.878;8.050;2023-12-20T12:13:10;98117.97;;;3.88;100.00
79671;BME280;69137;50.878;8.050;2023-12-20T12:15:36;98104.38;;;3.94;100.00
79671;BME280;69137;50.878;8.050;2023-12-20T12:18:02;98098.84;;;3.89;100.00
79671;BME280;69137;50.878;8.050;2023-12-20T12:20:28;98096.72;;;3.91;100.00
79671;BME280;69137;50.878;8.050;2023-12-20T12:23:04;98102.56;;;3.88;100.00
79671;BME280;69137;50.878;8.050;2023-12-20T12:25:30;98098.59;;;3.91;100.00
79671;BME280;69137;50.878;8.050;2023-12-20T12:27:57;98093.44;;;3.89;100.00
79671;BME280;69137;50.878;8.050;2023-12-20T12:30:23;98094.59;;;3.93;100.00
79671;BME280;69137;50.878;8.050;2023-12-20T12:32:48;98086.97;;;3.90;100.00
79671;BME280;69137;50.878;8.050;2023-12-20T12:35:14;98086.88;;;3.97;100.00
79671;BME280;69137;50.878;8.050;2023-12-20T12:37:40;98082.75;;;3.94;100.00
79671;BME280;69137;50.878;8.050;2023-12-20T12:40:17;98077.34;;;3.94;100.00
79671;BME280;69137;50.878;8.050;2023-12-20T12:42:44;98083.31;;;3.97;100.00
79671;BME280;69137;50.878;8.050;2023-12-20T12:45:10;98084.38;;;3.96;100.00
79671;BME280;69137;50.878;8.050;2023-12-20T12:47:37;98081.47;;;3.97;100.00
79671;BME280;69137;50.878;8.050;2023-12-20T12:50:03;98065.69;;;3.94;100.00
79671;BME280;69137;50.878;8.050;2023-12-20T12:52:30;98066.16;;;3.91;100.00
79671;BME280;69137;50.878;8.050;2023-12-20T12:54:55;98059.47;;;3.93;100.00
79671;BME280;69137;50.878;8.050;2023-12-20T12:57:20;98064.41;;;3.97;100.00
79671;BME280;69137;50.878;8.050;2023-12-20T12:59:46;98056.28;;;3.97;100.00
79671;BME280;69137;50.878;8.050;2023-12-20T13:02:14;98068.66;;;4.04;100.00